Time;durP1;ratioP1;P1;durP2;ratioP2;P2;SDS_P1;SDS_P2;PMS_P1;PMS_P2;Temp;Humidity;BMP_temperature;BMP_pressure;BME280_temperature;BME280_humidity;BME280_pressure;Samples;Min_cycle;Max_cycle;Signal;HPM_P1;HPM_P2
2022/05/27 00:01:36;;;;;;;3.77;0.93;;;15.30;99.90;;;;;;5095482;28;20167;-39
2022/05/27 00:04:03;;;;;;;1.13;0.80;;;15.20;99.90;;;;;;5095451;28;20635;-37
2022/05/27 00:06:30;;;;;;;3.43;1.00;;;15.20;99.90;;;;;;5095452;28;20198;-40
2022/05/27 00:08:57;;;;;;;2.67;1.10;;;15.30;99.90;;;;;;5095429;28;20187;-40
2022/05/27 00:11:23;;;;;;;2.33;0.90;;;15.20;99.90;;;;;;5095202;28;20678;-40
2022/05/27 00:13:53;;;;;;;2.67;1.13;;;15.20;99.90;;;;;;5095100;28;20174;-39
2022/05/27 00:16:19;;;;;;;2.00;1.13;;;15.20;99.90;;;;;;5095401;28;20191;-38
2022/05/27 00:18:45;;;;;;;4.23;1.03;;;15.20;99.90;;;;;;5095013;28;20544;-40
2022/05/27 00:21:11;;;;;;;3.73;1.00;;;15.20;99.90;;;;;;5094853;28;20544;-40
2022/05/27 00:23:39;;;;;;;3.43;1.20;;;15.20;99.90;;;;;;5094995;28;20182;-38
2022/05/27 00:26:05;;;;;;;3.03;1.10;;;15.10;99.90;;;;;;5094846;28;20167;-38
2022/05/27 00:28:31;;;;;;;2.17;0.90;;;15.10;99.90;;;;;;5095356;28;20199;-40
2022/05/27 00:30:57;;;;;;;5.30;1.10;;;15.10;99.90;;;;;;5094836;28;20724;-38
2022/05/27 00:33:23;;;;;;;4.70;1.20;;;15.10;99.90;;;;;;5094596;28;20183;-36
2022/05/27 00:35:49;;;;;;;2.77;1.40;;;15.00;99.90;;;;;;5094603;28;20203;-38
2022/05/27 00:38:15;;;;;;;4.37;1.20;;;15.10;99.90;;;;;;5094645;28;20710;-40
2022/05/27 00:40:46;;;;;;;1.63;1.20;;;15.00;99.90;;;;;;5076472;28;20206;-39
2022/05/27 00:43:12;;;;;;;6.27;1.13;;;15.10;99.90;;;;;;5095083;28;20162;-39
2022/05/27 00:45:41;;;;;;;1.67;1.10;;;15.00;99.90;;;;;;5094985;28;20178;-40
2022/05/27 00:48:13;;;;;;;4.57;1.30;;;15.00;99.90;;;;;;5095247;28;20682;-39
2022/05/27 00:50:42;;;;;;;4.33;1.20;;;15.00;99.90;;;;;;5094892;28;20226;-39
2022/05/27 00:53:10;;;;;;;2.37;1.30;;;15.00;99.90;;;;;;5094873;28;20642;-38
2022/05/27 00:55:45;;;;;;;2.60;1.30;;;14.90;99.90;;;;;;5095061;28;20293;-39
2022/05/27 00:58:17;;;;;;;3.03;1.27;;;15.00;99.90;;;;;;5094599;28;20190;-41
2022/05/27 01:00:43;;;;;;;3.67;1.20;;;14.90;99.90;;;;;;5094582;28;20599;-41
2022/05/27 01:03:12;;;;;;;8.23;1.20;;;15.00;99.90;;;;;;5094892;28;20196;-40
2022/05/27 01:05:41;;;;;;;3.10;0.90;;;14.90;99.90;;;;;;5094620;28;20719;-41
2022/05/27 01:08:08;;;;;;;2.43;0.93;;;14.90;99.90;;;;;;5094358;28;20210;-41
2022/05/27 01:11:19;;;;;;;4.87;1.20;;;14.90;99.90;;;;;;5094689;28;20222;-40
2022/05/27 01:14:00;;;;;;;2.67;1.07;;;14.90;99.90;;;;;;5094590;28;20174;-40
2022/05/27 01:16:42;;;;;;;3.13;1.27;;;14.90;99.90;;;;;;5094634;28;20171;-38
2022/05/27 01:22:22;;;;;;;3.63;1.60;;;14.90;99.90;;;;;;5095006;28;20198;-39
2022/05/27 01:25:04;;;;;;;4.33;1.90;;;14.80;99.90;;;;;;5095065;28;20548;-40
2022/05/27 01:27:55;;;;;;;3.30;1.80;;;14.80;99.90;;;;;;5078689;28;20191;-39
2022/05/27 01:30:24;;;;;;;4.20;2.13;;;14.80;99.90;;;;;;5099627;28;20658;-40
2022/05/27 01:33:18;;;;;;;4.20;2.20;;;14.80;99.90;;;;;;5098748;28;20182;-40
2022/05/27 01:36:17;;;;;;;4.80;2.00;;;14.80;99.90;;;;;;5098047;28;20231;-39
2022/05/27 01:39:06;;;;;;;3.43;1.90;;;14.80;99.90;;;;;;5096408;28;20230;-40
2022/05/27 01:41:48;;;;;;;3.77;2.37;;;14.80;99.90;;;;;;5094193;28;20182;-38
2022/05/27 01:44:27;;;;;;;3.77;2.00;;;14.70;99.90;;;;;;5094163;28;20167;-38
2022/05/27 01:46:54;;;;;;;3.60;1.77;;;14.80;99.90;;;;;;5093132;28;20224;-38
2022/05/27 01:49:42;;;;;;;2.77;1.80;;;14.70;99.90;;;;;;5093555;28;20191;-40
2022/05/27 01:52:29;;;;;;;4.00;1.80;;;14.70;99.90;;;;;;5093642;28;20240;-38
2022/05/27 01:55:01;;;;;;;4.70;1.67;;;14.70;99.90;;;;;;5093777;28;20226;-38
2022/05/27 01:57:29;;;;;;;3.17;1.40;;;14.70;99.90;;;;;;5093491;28;20187;-39
2022/05/27 02:00:11;;;;;;;4.53;1.70;;;14.70;99.90;;;;;;5093533;28;20167;-37
2022/05/27 02:02:44;;;;;;;5.40;1.80;;;14.70;99.90;;;;;;5093676;28;20212;-39
2022/05/27 02:05:18;;;;;;;3.80;1.53;;;14.70;99.90;;;;;;5093726;28;20650;-38
2022/05/27 02:07:50;;;;;;;2.60;1.40;;;14.70;99.90;;;;;;5093848;28;20198;-40
2022/05/27 02:10:27;;;;;;;3.57;1.20;;;14.70;99.90;;;;;;5093556;28;20201;-37
2022/05/27 02:12:58;;;;;;;2.97;1.10;;;14.70;99.90;;;;;;5093522;28;20684;-37
2022/05/27 02:15:29;;;;;;;2.50;1.40;;;14.70;99.90;;;;;;5093403;28;20570;-40
2022/05/27 02:18:07;;;;;;;5.97;1.90;;;14.70;99.90;;;;;;5093496;28;20210;-37
2022/05/27 02:20:41;;;;;;;2.30;1.30;;;14.70;99.90;;;;;;5093186;28;20202;-38
2022/05/27 02:23:28;;;;;;;3.97;1.30;;;14.60;99.90;;;;;;5093532;28;20171;-38
2022/05/27 02:25:55;;;;;;;4.20;1.10;;;14.60;99.90;;;;;;5093282;28;20212;-39
2022/05/27 02:28:28;;;;;;;3.73;1.00;;;14.60;99.90;;;;;;5093335;28;20222;-39
2022/05/27 02:30:58;;;;;;;3.60;1.20;;;14.60;99.90;;;;;;5095897;28;20167;-38
2022/05/27 02:36:58;;;;;;;3.97;1.10;;;14.50;99.90;;;;;;5031461;28;20204;-41
2022/05/27 02:39:24;;;;;;;4.07;1.37;;;14.40;99.90;;;;;;5030738;28;20205;-39
2022/05/27 02:42:00;;;;;;;2.43;1.27;;;14.30;99.90;;;;;;5072408;28;20195;-41
2022/05/27 02:44:44;;;;;;;3.33;0.97;;;14.30;99.90;;;;;;5093928;28;20265;-40
2022/05/27 02:47:15;;;;;;;3.30;1.20;;;14.10;99.90;;;;;;5093203;28;20568;-41
2022/05/27 02:49:47;;;;;;;3.93;1.37;;;14.10;99.90;;;;;;5093266;28;20238;-38
2022/05/27 02:52:26;;;;;;;3.20;1.50;;;14.00;99.90;;;;;;5093063;28;20304;-40
2022/05/27 02:55:20;;;;;;;1.60;1.23;;;14.00;99.90;;;;;;5092855;28;20237;-41
2022/05/27 02:57:49;;;;;;;5.37;1.60;;;13.90;99.90;;;;;;5095151;28;20206;-40
2022/05/27 03:00:19;;;;;;;3.53;1.37;;;13.90;99.90;;;;;;5096520;28;20170;-40
2022/05/27 03:02:45;;;;;;;2.57;1.27;;;13.80;99.90;;;;;;5096772;28;20534;-40
2022/05/27 03:05:13;;;;;;;3.07;1.37;;;13.80;99.90;;;;;;5096500;28;20171;-41
2022/05/27 03:07:52;;;;;;;1.93;1.37;;;13.70;99.90;;;;;;5096400;28;20191;-40
2022/05/27 03:10:29;;;;;;;4.73;1.30;;;13.70;99.90;;;;;;5097145;28;20167;-41
2022/05/27 03:13:11;;;;;;;3.03;1.20;;;13.60;99.90;;;;;;5097380;28;20178;-42
2022/05/27 03:16:01;;;;;;;2.83;1.40;;;13.60;99.90;;;;;;5096813;28;20210;-40
2022/05/27 03:18:57;;;;;;;4.40;1.40;;;13.60;99.90;;;;;;5096363;28;20529;-41
2022/05/27 03:21:34;;;;;;;2.20;1.20;;;13.50;99.90;;;;;;5096022;28;20261;-37
2022/05/27 03:24:28;;;;;;;2.33;1.30;;;13.50;99.90;;;;;;5096638;28;20219;-40
2022/05/27 03:27:06;;;;;;;4.53;1.50;;;13.50;99.90;;;;;;5096442;28;20205;-38
2022/05/27 03:29:47;;;;;;;3.13;1.30;;;13.50;99.90;;;;;;5096636;28;20188;-40
2022/05/27 03:32:23;;;;;;;5.40;1.50;;;13.50;99.90;;;;;;5096068;28;20220;-42
2022/05/27 03:35:07;;;;;;;4.00;1.80;;;13.50;99.90;;;;;;5077807;28;20206;-43
2022/05/27 03:37:48;;;;;;;6.93;1.43;;;13.50;99.90;;;;;;5096267;28;20218;-44
2022/05/27 03:40:23;;;;;;;1.93;1.40;;;13.50;99.90;;;;;;5095815;28;20224;-43
2022/05/27 03:42:50;;;;;;;2.40;1.53;;;13.40;99.90;;;;;;5095803;28;20171;-44
2022/05/27 03:45:20;;;;;;;2.80;1.27;;;13.40;99.90;;;;;;5095698;28;20191;-43
2022/05/27 03:47:46;;;;;;;1.53;1.20;;;13.40;99.90;;;;;;5095635;28;20559;-42
2022/05/27 03:50:16;;;;;;;5.73;1.53;;;13.40;99.90;;;;;;5078160;28;20642;-44
2022/05/27 03:52:45;;;;;;;3.93;1.50;;;13.40;99.90;;;;;;5097051;28;20170;-43
2022/05/27 03:55:14;;;;;;;3.70;1.47;;;13.40;99.90;;;;;;5095437;28;20250;-42
2022/05/27 03:57:39;;;;;;;6.03;1.63;;;13.40;99.90;;;;;;5095401;28;20182;-43
2022/05/27 04:00:07;;;;;;;6.50;1.80;;;13.40;99.90;;;;;;5095361;28;20217;-42
2022/05/27 04:02:32;;;;;;;2.50;1.40;;;13.40;99.90;;;;;;5095207;28;20273;-44
2022/05/27 04:04:58;;;;;;;7.30;2.00;;;13.40;99.90;;;;;;5095526;28;20234;-44
2022/05/27 04:07:24;;;;;;;5.20;2.07;;;13.40;99.90;;;;;;5095138;28;20194;-43
2022/05/27 04:09:49;;;;;;;3.70;1.90;;;13.40;99.90;;;;;;5094322;28;20191;-43
2022/05/27 04:12:15;;;;;;;5.83;1.70;;;13.50;99.90;;;;;;5095736;28;20182;-42
2022/05/27 04:14:40;;;;;;;2.97;2.00;;;13.40;99.90;;;;;;5095356;28;20206;-44
2022/05/27 04:19:50;;;;;;;2.50;1.90;;;13.40;99.90;;;;;;5095235;28;20669;-43
2022/05/27 04:22:16;;;;;;;3.50;2.20;;;13.40;99.90;;;;;;5095490;28;20163;-42
2022/05/27 04:24:41;;;;;;;2.70;2.10;;;13.40;99.90;;;;;;5095156;28;20182;-43
2022/05/27 04:27:15;;;;;;;2.63;1.93;;;13.40;99.90;;;;;;5094823;28;20174;-42
2022/05/27 04:29:43;;;;;;;4.43;2.37;;;13.40;99.90;;;;;;5094645;28;20167;-45
2022/05/27 04:32:09;;;;;;;4.93;2.43;;;13.40;99.90;;;;;;5096625;28;20187;-42
2022/05/27 04:34:35;;;;;;;4.03;2.07;;;13.40;99.90;;;;;;5094691;28;20207;-44
2022/05/27 04:37:01;;;;;;;5.37;2.50;;;13.30;99.90;;;;;;5094860;28;20170;-42
2022/05/27 04:39:27;;;;;;;4.40;2.30;;;13.30;99.90;;;;;;5094915;28;20626;-43
2022/05/27 04:41:53;;;;;;;2.73;1.60;;;13.30;99.90;;;;;;5094640;28;20221;-43
2022/05/27 04:44:18;;;;;;;6.60;2.37;;;13.20;99.90;;;;;;5094580;28;20175;-43
2022/05/27 04:46:45;;;;;;;3.03;2.00;;;13.20;99.90;;;;;;5095162;28;20215;-43
2022/05/27 04:49:50;;;;;;;4.17;2.10;;;13.30;99.90;;;;;;5095035;28;20186;-42
2022/05/27 04:51:58;;;;;;;3.70;2.27;;;13.30;99.90;;;;;;5095837;28;20273;-44
2022/05/27 04:54:23;;;;;;;3.40;2.43;;;13.30;99.90;;;;;;5094633;28;20298;-42
2022/05/27 04:56:49;;;;;;;4.10;2.40;;;13.30;99.90;;;;;;5094346;28;20175;-42
2022/05/27 04:59:15;;;;;;;3.53;2.10;;;13.30;99.90;;;;;;5094182;28;20600;-44
2022/05/27 05:01:40;;;;;;;6.33;2.83;;;13.30;99.90;;;;;;5094695;28;20524;-43
2022/05/27 05:04:06;;;;;;;6.27;2.37;;;13.30;99.90;;;;;;5094282;28;20213;-45
2022/05/27 05:06:31;;;;;;;5.80;2.40;;;13.30;99.90;;;;;;5094139;28;20217;-43
2022/05/27 05:08:57;;;;;;;4.37;2.70;;;13.30;99.90;;;;;;5094046;28;20205;-44
2022/05/27 05:11:23;;;;;;;2.80;2.47;;;13.30;99.90;;;;;;5094411;28;20252;-44
2022/05/27 05:13:48;;;;;;;3.57;2.73;;;13.30;99.90;;;;;;5094268;28;20638;-41
2022/05/27 05:16:14;;;;;;;4.67;2.63;;;13.40;99.90;;;;;;5094147;28;20246;-44
2022/05/27 05:18:40;;;;;;;3.00;2.70;;;13.40;99.90;;;;;;5094016;28;20273;-44
2022/05/27 05:21:05;;;;;;;5.83;2.77;;;13.40;99.90;;;;;;5096272;28;20198;-45
2022/05/27 05:23:31;;;;;;;5.17;2.40;;;13.40;99.90;;;;;;5093728;28;20183;-44
2022/05/27 05:25:56;;;;;;;4.03;2.87;;;13.40;99.90;;;;;;5093663;28;20179;-42
2022/05/27 05:28:22;;;;;;;3.83;2.53;;;13.40;99.90;;;;;;5093811;28;20194;-44
2022/05/27 05:30:48;;;;;;;3.63;2.13;;;13.40;99.90;;;;;;5093707;28;20763;-43
2022/05/27 05:33:13;;;;;;;3.10;2.30;;;13.50;99.90;;;;;;5093720;28;20182;-45
2022/05/27 05:35:39;;;;;;;3.30;2.50;;;13.50;99.90;;;;;;5093535;28;20206;-44
2022/05/27 05:38:06;;;;;;;4.50;2.73;;;13.50;99.90;;;;;;5075591;28;20199;-44
2022/05/27 05:40:32;;;;;;;5.33;2.77;;;13.50;99.90;;;;;;5096591;28;20191;-45
2022/05/27 05:43:00;;;;;;;3.63;2.40;;;13.50;99.90;;;;;;5093840;28;20182;-45
2022/05/27 05:45:26;;;;;;;3.13;2.13;;;13.50;99.90;;;;;;5093903;28;20170;-42
2022/05/27 05:47:51;;;;;;;3.60;2.40;;;13.60;99.90;;;;;;5093879;28;20232;-44
2022/05/27 05:50:17;;;;;;;3.57;2.30;;;13.60;99.90;;;;;;5075378;28;20186;-45
2022/05/27 05:52:44;;;;;;;4.90;2.83;;;13.60;99.90;;;;;;5093507;28;20186;-45
2022/05/27 05:55:12;;;;;;;5.13;2.77;;;13.60;99.90;;;;;;5094402;28;20214;-44
2022/05/27 05:57:41;;;;;;;5.70;2.67;;;13.60;99.90;;;;;;5093340;28;20210;-46
2022/05/27 06:00:09;;;;;;;7.13;2.50;;;13.60;99.90;;;;;;5093575;28;20244;-45
2022/05/27 06:02:35;;;;;;;4.33;3.07;;;13.60;99.90;;;;;;5093341;28;20285;-44
2022/05/27 06:05:03;;;;;;;4.73;2.97;;;13.60;99.90;;;;;;5075226;28;20203;-44
2022/05/27 06:07:32;;;;;;;7.00;3.40;;;13.50;99.90;;;;;;5093276;28;20199;-46
2022/05/27 06:09:58;;;;;;;3.00;2.10;;;13.60;99.90;;;;;;5093363;28;20247;-42
2022/05/27 06:12:25;;;;;;;2.00;1.50;;;13.60;99.90;;;;;;5093627;28;20228;-43
2022/05/27 06:14:51;;;;;;;0.60;0.60;;;13.50;99.90;;;;;;5093190;28;20247;-44
2022/05/27 06:17:17;;;;;;;0.73;0.57;;;13.40;99.90;;;;;;5093764;28;20178;-44
2022/05/27 06:19:42;;;;;;;0.60;0.60;;;13.20;99.90;;;;;;5074905;28;20206;-43
2022/05/27 06:22:08;;;;;;;1.23;0.60;;;13.20;99.90;;;;;;5093390;28;20167;-45
2022/05/27 06:24:34;;;;;;;0.80;0.60;;;13.10;99.90;;;;;;5093183;28;20246;-41
2022/05/27 06:26:59;;;;;;;0.70;0.70;;;13.00;99.90;;;;;;5093352;28;20225;-42
2022/05/27 06:34:53;;;;;;;0.90;0.80;;;12.90;99.90;;;;;;5098547;28;20333;-45
2022/05/27 06:37:21;;;;;;;0.83;0.70;;;12.90;99.90;;;;;;5099295;28;20206;-44
2022/05/27 06:39:47;;;;;;;1.77;0.87;;;12.80;99.90;;;;;;5097009;28;20262;-43
2022/05/27 06:42:15;;;;;;;1.60;1.10;;;12.90;99.90;;;;;;5096948;28;20175;-43
2022/05/27 06:44:41;;;;;;;1.10;0.83;;;12.90;99.90;;;;;;5096843;28;20217;-44
2022/05/27 06:47:09;;;;;;;3.70;1.00;;;12.90;99.90;;;;;;5096973;28;20214;-43
2022/05/27 06:49:37;;;;;;;1.50;1.03;;;12.90;99.90;;;;;;5098603;28;20269;-43
2022/05/27 06:52:04;;;;;;;1.33;1.07;;;13.00;99.90;;;;;;5096650;28;20179;-42
2022/05/27 06:54:29;;;;;;;1.30;1.00;;;12.90;99.90;;;;;;5096805;28;20206;-44
2022/05/27 06:56:55;;;;;;;1.50;1.10;;;13.00;99.90;;;;;;5097385;28;20259;-44
2022/05/27 06:59:23;;;;;;;3.07;1.53;;;13.00;99.90;;;;;;5096874;28;20202;-43
2022/05/27 07:01:48;;;;;;;4.93;1.40;;;13.00;99.90;;;;;;5097918;28;20510;-45
2022/05/27 07:04:14;;;;;;;3.37;1.30;;;13.00;99.90;;;;;;5096624;28;20232;-44
2022/05/27 07:06:44;;;;;;;1.60;1.20;;;13.00;99.90;;;;;;5096461;28;20556;-44
2022/05/27 07:09:12;;;;;;;2.03;1.50;;;13.10;99.90;;;;;;5096676;28;20559;-42
2022/05/27 07:11:39;;;;;;;1.30;1.03;;;13.10;99.90;;;;;;5096416;28;20603;-43
2022/05/27 07:14:05;;;;;;;2.77;1.50;;;13.20;99.90;;;;;;5096091;28;20174;-44
2022/05/27 07:16:31;;;;;;;1.63;1.27;;;13.30;99.90;;;;;;5096314;28;20214;-44
2022/05/27 07:18:57;;;;;;;2.40;1.50;;;13.40;99.90;;;;;;5096379;28;20672;-44
2022/05/27 07:21:22;;;;;;;3.20;1.73;;;13.40;99.90;;;;;;5096008;28;20191;-43
2022/05/27 07:23:52;;;;;;;2.50;1.60;;;13.40;99.90;;;;;;5096080;28;20639;-44
2022/05/27 07:26:18;;;;;;;3.23;1.80;;;13.50;99.90;;;;;;5096050;28;20182;-43
2022/05/27 07:28:44;;;;;;;3.37;1.53;;;13.70;99.90;;;;;;5095931;28;20205;-44
2022/05/27 07:31:09;;;;;;;1.70;1.60;;;13.80;99.90;;;;;;5095972;28;20270;-44
2022/05/27 07:33:35;;;;;;;3.83;1.80;;;13.90;99.90;;;;;;5096397;28;20232;-44
2022/05/27 07:36:00;;;;;;;3.80;2.03;;;13.90;99.90;;;;;;5095996;28;20213;-44
2022/05/27 07:38:26;;;;;;;1.93;1.77;;;13.90;99.90;;;;;;5095963;28;20286;-43
2022/05/27 07:40:52;;;;;;;2.57;2.03;;;14.00;99.90;;;;;;5095831;28;20253;-44
2022/05/27 07:43:19;;;;;;;2.50;2.00;;;14.10;99.90;;;;;;5097841;28;20171;-44
2022/05/27 07:45:45;;;;;;;3.30;2.47;;;14.20;99.90;;;;;;5095609;28;20171;-44
2022/05/27 07:48:11;;;;;;;4.00;2.57;;;14.20;99.90;;;;;;5077470;28;20199;-43
2022/05/27 07:50:38;;;;;;;5.37;2.60;;;14.40;99.90;;;;;;5095830;28;20167;-45
2022/05/27 07:53:04;;;;;;;3.90;2.80;;;14.40;99.90;;;;;;5096275;28;20227;-44
2022/05/27 07:55:30;;;;;;;3.27;2.87;;;14.50;99.90;;;;;;5095523;28;20291;-43
2022/05/27 07:57:56;;;;;;;5.17;2.90;;;14.60;99.90;;;;;;5096403;28;20674;-44
2022/05/27 08:00:28;;;;;;;3.20;2.53;;;14.60;99.90;;;;;;5095368;28;20202;-44
2022/05/27 08:02:54;;;;;;;5.37;3.43;;;14.70;99.90;;;;;;5095613;28;20162;-45
2022/05/27 08:05:22;;;;;;;4.87;3.50;;;14.70;99.90;;;;;;5095173;28;20613;-44
2022/05/27 08:07:48;;;;;;;6.20;3.33;;;14.80;99.90;;;;;;5095597;28;20202;-44
2022/05/27 08:10:18;;;;;;;6.90;4.10;;;14.80;99.90;;;;;;5095339;28;20684;-46
2022/05/27 08:12:44;;;;;;;6.90;4.80;;;14.90;99.90;;;;;;5095154;28;20716;-45
2022/05/27 08:15:11;;;;;;;6.43;4.37;;;14.90;99.90;;;;;;5095364;28;20206;-45
2022/05/27 08:17:37;;;;;;;7.47;5.03;;;15.00;99.90;;;;;;5095529;28;20676;-46
2022/05/27 08:20:04;;;;;;;7.03;4.83;;;15.10;99.90;;;;;;5095166;28;20195;-44
2022/05/27 08:22:30;;;;;;;7.53;4.70;;;15.10;99.90;;;;;;5094763;28;20185;-44
2022/05/27 08:24:56;;;;;;;6.23;4.53;;;15.20;99.90;;;;;;5098476;28;20262;-43
2022/05/27 08:27:22;;;;;;;6.77;4.63;;;15.30;99.90;;;;;;5095199;28;20636;-44
2022/05/27 08:29:48;;;;;;;6.23;4.77;;;15.50;99.90;;;;;;5094862;28;20183;-44
2022/05/27 08:32:13;;;;;;;7.33;4.83;;;15.70;99.90;;;;;;5094737;28;20219;-43
2022/05/27 08:40:49;;;;;;;6.53;3.77;;;16.20;99.90;;;;;;5095074;28;20216;-45
2022/05/27 08:43:41;;;;;;;11.63;3.97;;;16.30;99.90;;;;;;5095988;28;20208;-41
2022/05/27 08:46:25;;;;;;;4.47;3.10;;;16.40;99.90;;;;;;5095464;28;20171;-43
2022/05/27 08:48:58;;;;;;;9.40;3.50;;;16.60;99.90;;;;;;5096605;28;20658;-45
2022/05/27 08:51:42;;;;;;;6.40;3.50;;;16.80;99.90;;;;;;5096303;28;20220;-44
2022/05/27 08:54:11;;;;;;;8.50;3.93;;;17.10;99.90;;;;;;5096045;28;20171;-43
2022/05/27 08:59:40;;;;;;;2.80;2.00;;;17.50;99.90;;;;;;5101282;28;20285;-44
2022/05/27 09:02:27;;;;;;;8.73;3.60;;;17.60;99.90;;;;;;5094982;28;20569;-42
2022/05/27 09:05:16;;;;;;;5.53;3.23;;;17.60;99.90;;;;;;5094899;28;20163;-43
2022/05/27 09:07:47;;;;;;;7.97;3.40;;;17.70;99.90;;;;;;5094458;28;20214;-43
2022/05/27 09:10:30;;;;;;;6.20;3.70;;;17.70;99.90;;;;;;5094433;28;20246;-44
2022/05/27 09:13:01;;;;;;;6.53;3.73;;;17.70;99.90;;;;;;5094777;28;20163;-43
2022/05/27 09:15:38;;;;;;;6.10;3.60;;;17.60;99.90;;;;;;5076081;28;20735;-43
2022/05/27 09:18:12;;;;;;;6.77;3.60;;;17.60;99.90;;;;;;5094118;28;20693;-42
2022/05/27 09:20:38;;;;;;;8.43;3.83;;;17.60;99.90;;;;;;5093895;28;20209;-43
2022/05/27 09:23:47;;;;;;;5.63;3.53;;;17.90;99.90;;;;;;5094027;28;20179;-43
2022/05/27 09:26:18;;;;;;;6.60;3.40;;;18.00;99.90;;;;;;5039517;28;20215;-43
2022/05/27 09:28:55;;;;;;;5.37;3.60;;;18.10;99.90;;;;;;5094045;28;20269;-44
2022/05/27 09:31:46;;;;;;;4.57;2.70;;;18.10;99.90;;;;;;5075904;28;20276;-43
2022/05/27 09:34:12;;;;;;;6.93;2.67;;;18.20;99.90;;;;;;5084596;28;20190;-43
2022/05/27 09:36:46;;;;;;;4.73;2.37;;;18.30;99.90;;;;;;5093629;28;20256;-43
2022/05/27 09:39:15;;;;;;;4.40;2.33;;;18.50;99.90;;;;;;5093655;28;20195;-44
2022/05/27 09:42:05;;;;;;;3.90;2.40;;;18.50;99.90;;;;;;5093511;28;20202;-44
2022/05/27 09:44:45;;;;;;;4.40;2.20;;;18.60;99.90;;;;;;5093814;28;20578;-42
2022/05/27 09:47:11;;;;;;;6.17;2.10;;;18.60;99.90;;;;;;5093675;28;20158;-43
2022/05/27 09:49:38;;;;;;;3.43;2.13;;;18.80;99.90;;;;;;5093577;28;20175;-43
2022/05/27 09:52:05;;;;;;;3.37;2.03;;;19.10;99.90;;;;;;5093383;28;20163;-45
2022/05/27 09:54:35;;;;;;;7.00;2.30;;;19.20;99.90;;;;;;5093232;28;20175;-44
2022/05/27 09:57:17;;;;;;;5.23;2.70;;;19.40;99.90;;;;;;5094881;28;20179;-45
2022/05/27 09:59:48;;;;;;;4.17;2.60;;;19.60;99.90;;;;;;5093977;28;20269;-46
2022/05/27 10:02:21;;;;;;;4.47;2.40;;;19.60;99.90;;;;;;5093579;28;20167;-45
2022/05/27 10:04:56;;;;;;;5.77;2.27;;;19.70;99.90;;;;;;5093599;28;20167;-45
2022/05/27 10:07:52;;;;;;;3.30;2.23;;;19.70;99.90;;;;;;5095790;28;20202;-44
2022/05/27 10:10:30;;;;;;;3.90;1.90;;;20.00;99.90;;;;;;5098215;28;20266;-44
2022/05/27 10:13:04;;;;;;;4.17;1.90;;;20.20;99.90;;;;;;5097764;28;20166;-44
2022/05/27 10:15:34;;;;;;;2.60;2.13;;;20.40;99.90;;;;;;5097820;28;20216;-44
2022/05/27 10:18:15;;;;;;;3.40;1.90;;;20.50;99.90;;;;;;5097649;28;20682;-45
2022/05/27 10:20:42;;;;;;;2.67;2.07;;;20.40;99.90;;;;;;5097457;28;20190;-44
2022/05/27 10:23:11;;;;;;;3.17;1.80;;;20.40;99.90;;;;;;5097257;28;20225;-43
2022/05/27 10:25:42;;;;;;;4.33;1.80;;;20.40;99.90;;;;;;5079065;28;20523;-43
2022/05/27 10:28:21;;;;;;;4.13;1.70;;;20.40;99.90;;;;;;5097140;28;20199;-45
2022/05/27 10:30:57;;;;;;;3.57;1.80;;;20.60;99.90;;;;;;5097581;28;20175;-43
2022/05/27 10:33:36;;;;;;;8.40;2.03;;;20.60;99.90;;;;;;5097058;28;20245;-47
2022/05/27 10:36:02;;;;;;;1.73;1.40;;;20.60;99.90;;;;;;5097229;28;20212;-45
2022/05/27 10:38:45;;;;;;;3.63;1.90;;;20.70;99.90;;;;;;5096897;28;20202;-42
2022/05/27 10:41:15;;;;;;;4.80;2.13;;;20.80;99.90;;;;;;5097301;28;20156;-43
2022/05/27 10:44:36;;;;;;;5.17;1.97;;;20.90;99.90;;;;;;5097222;28;20182;-42
2022/05/27 10:47:03;;;;;;;4.83;1.80;;;20.90;99.90;;;;;;5015748;28;20181;-44
2022/05/27 10:49:50;;;;;;;4.70;1.90;;;21.10;99.90;;;;;;5081522;28;20229;-45
2022/05/27 10:52:35;;;;;;;4.07;2.07;;;21.30;99.90;;;;;;5097614;28;20252;-45
2022/05/27 10:55:18;;;;;;;3.93;2.17;;;21.40;99.90;;;;;;5079163;28;20229;-44
2022/05/27 11:04:14;;;;;;;4.13;1.50;;;21.90;99.90;;;;;;5096895;28;20592;-44
2022/05/27 11:06:59;;;;;;;4.23;2.10;;;21.80;99.90;;;;;;5096620;28;20263;-45
2022/05/27 11:09:27;;;;;;;5.63;1.70;;;21.60;99.90;;;;;;5097483;28;20198;-45
2022/05/27 11:12:04;;;;;;;5.43;1.63;;;21.70;99.90;;;;;;5096690;28;20178;-44
2022/05/27 11:18:00;;;;;;;4.47;2.10;;;21.70;99.90;;;;;;5096293;28;20245;-43
2022/05/27 11:20:46;;;;;;;5.10;1.77;;;21.40;99.90;;;;;;5096232;28;20186;-44
2022/05/27 11:23:15;;;;;;;5.50;1.83;;;21.10;99.90;;;;;;5096508;28;20151;-43
2022/05/27 11:26:07;;;;;;;4.40;2.07;;;20.80;99.90;;;;;;5098609;28;20178;-44
2022/05/27 11:28:54;;;;;;;4.90;1.80;;;20.40;99.90;;;;;;5096612;28;20191;-44
2022/05/27 11:31:31;;;;;;;5.20;1.67;;;20.10;99.90;;;;;;5096080;28;20267;-45
2022/05/27 11:34:33;;;;;;;4.03;2.10;;;20.10;99.90;;;;;;5098103;28;20207;-44
2022/05/27 11:37:09;;;;;;;3.87;1.80;;;20.20;99.90;;;;;;5077842;28;20209;-45
2022/05/27 11:40:17;;;;;;;6.07;2.00;;;20.40;99.90;;;;;;5095939;28;20163;-44
2022/05/27 11:42:59;;;;;;;5.00;1.57;;;20.60;99.90;;;;;;5098242;28;20250;-45
2022/05/27 11:45:28;;;;;;;4.17;1.73;;;20.90;99.90;;;;;;5096249;28;20198;-44
2022/05/27 11:48:09;;;;;;;6.23;2.03;;;20.80;99.90;;;;;;5097135;28;20199;-44
2022/05/27 11:50:59;;;;;;;5.23;1.80;;;20.60;99.90;;;;;;5078688;28;20201;-44
2022/05/27 11:53:53;;;;;;;5.40;1.83;;;20.60;99.90;;;;;;5095934;28;20246;-43
2022/05/27 11:56:39;;;;;;;4.83;1.70;;;20.60;99.90;;;;;;5095769;28;20183;-43
2022/05/27 11:59:10;;;;;;;5.43;1.47;;;20.60;99.90;;;;;;5096016;28;20201;-45
2022/05/27 12:01:44;;;;;;;5.27;1.67;;;20.50;99.90;;;;;;5095742;28;20164;-45
2022/05/27 12:04:34;;;;;;;3.43;1.50;;;20.30;99.90;;;;;;5095982;28;20159;-46
2022/05/27 12:07:12;;;;;;;6.20;1.80;;;20.20;99.90;;;;;;5095605;28;20194;-44
2022/05/27 12:09:54;;;;;;;6.83;1.90;;;20.30;99.90;;;;;;5095572;28;20201;-45
2022/05/27 12:12:33;;;;;;;2.67;1.33;;;20.30;99.90;;;;;;5095142;28;20171;-44
2022/05/27 12:15:09;;;;;;;3.70;1.83;;;20.00;99.90;;;;;;5095268;28;20709;-45
2022/05/27 12:17:42;;;;;;;5.87;1.67;;;20.00;99.90;;;;;;5095784;28;20277;-45
2022/05/27 12:20:10;;;;;;;5.23;1.90;;;20.00;99.90;;;;;;5096367;28;20187;-46
2022/05/27 12:22:36;;;;;;;4.03;2.10;;;20.10;99.90;;;;;;5095270;28;20677;-41
2022/05/27 12:25:13;;;;;;;6.23;2.00;;;20.20;99.90;;;;;;5077146;28;20206;-38
2022/05/27 12:27:39;;;;;;;9.40;1.93;;;20.40;99.90;;;;;;5095297;28;20209;-38
2022/05/27 12:30:11;;;;;;;5.27;1.73;;;20.50;99.90;;;;;;5094762;28;20179;-42
2022/05/27 12:32:41;;;;;;;6.30;1.70;;;20.50;99.90;;;;;;5095190;28;20380;-42
2022/05/27 12:35:21;;;;;;;3.23;1.40;;;20.50;99.90;;;;;;5094793;28;20246;-44
2022/05/27 12:37:58;;;;;;;4.70;1.53;;;20.70;99.90;;;;;;5077019;28;20568;-44
2022/05/27 12:40:30;;;;;;;4.57;1.40;;;20.90;99.90;;;;;;5095132;28;20216;-44
2022/05/27 12:43:00;;;;;;;3.63;1.50;;;20.90;99.90;;;;;;5094962;28;20534;-40
2022/05/27 12:45:46;;;;;;;5.93;2.10;;;20.70;99.90;;;;;;5094750;28;20543;-39
2022/05/27 12:48:28;;;;;;;5.07;1.80;;;20.40;99.90;;;;;;5094581;28;20191;-38
2022/05/27 12:50:56;;;;;;;5.87;1.60;;;20.50;99.90;;;;;;5094637;28;20537;-40
2022/05/27 12:53:42;;;;;;;3.93;1.20;;;20.50;99.90;;;;;;5094470;28;20186;-40
2022/05/27 13:02:21;;;;;;;3.37;1.77;;;20.50;99.90;;;;;;5094400;28;20586;-38
2022/05/27 13:04:53;;;;;;;5.07;1.70;;;20.70;99.90;;;;;;5094315;28;20348;-39
2022/05/27 13:07:28;;;;;;;5.27;1.70;;;20.80;99.90;;;;;;5094405;28;20661;-41
2022/05/27 13:09:55;;;;;;;4.20;1.47;;;20.90;99.90;;;;;;5094534;28;20227;-39
2022/05/27 13:12:42;;;;;;;4.40;1.30;;;21.00;99.90;;;;;;5094165;28;20205;-38
2022/05/27 13:15:24;;;;;;;2.87;1.40;;;21.00;99.90;;;;;;5095468;28;20214;-40
2022/05/27 13:18:09;;;;;;;5.23;1.73;;;20.70;99.90;;;;;;5094130;28;20662;-40
2022/05/27 13:21:13;;;;;;;5.63;1.73;;;20.80;99.90;;;;;;5093979;28;20191;-40
2022/05/27 13:24:29;;;;;;;5.43;1.63;;;20.70;99.90;;;;;;5079526;28;20182;-40
2022/05/27 13:26:58;;;;;;;4.33;1.60;;;20.70;99.90;;;;;;5011977;28;20190;-41
2022/05/27 13:29:38;;;;;;;3.30;1.47;;;21.10;99.90;;;;;;5080129;28;20663;-39
2022/05/27 13:32:10;;;;;;;3.90;1.30;;;21.00;99.90;;;;;;5093832;28;20168;-39
2022/05/27 13:35:01;;;;;;;5.63;1.70;;;21.10;99.90;;;;;;5093706;28;20229;-41
2022/05/27 13:37:38;;;;;;;6.20;2.03;;;21.10;99.90;;;;;;5093940;28;20268;-39
2022/05/27 13:40:27;;;;;;;4.90;1.83;;;20.90;99.90;;;;;;5093874;28;20304;-42
2022/05/27 13:42:56;;;;;;;3.43;1.33;;;20.60;99.90;;;;;;5096239;28;20183;-41
2022/05/27 13:45:21;;;;;;;5.53;2.00;;;20.50;99.90;;;;;;5094140;28;20178;-39
2022/05/27 13:48:08;;;;;;;3.13;1.50;;;20.50;99.90;;;;;;5095636;28;20202;-40
2022/05/27 13:50:37;;;;;;;6.03;1.67;;;20.50;99.90;;;;;;5093831;28;20208;-40
2022/05/27 13:53:32;;;;;;;4.33;1.53;;;20.60;99.90;;;;;;5093749;28;20194;-40
2022/05/27 13:56:07;;;;;;;8.17;1.43;;;20.80;99.90;;;;;;5058557;28;20222;-41
2022/05/27 13:58:36;;;;;;;4.10;1.67;;;21.00;99.90;;;;;;5075528;28;20198;-41